Time;durP1;ratioP1;P1;durP2;ratioP2;P2;SDS_P1;SDS_P2;PMS_P1;PMS_P2;Temp;Humidity;BMP_temperature;BMP_pressure;BME280_temperature;BME280_humidity;BME280_pressure;Samples;Min_cycle;Max_cycle;Signal;HPM_P1;HPM_P2
2022/02/01 00:03:04;;;;;;;16.75;4.25;;;;;;;2.31;78.26;101060.41;5002985;28;20611;-48
2022/02/01 00:05:43;;;;;;;11.98;2.95;;;;;;;2.32;78.31;101060.22;5004930;28;20037;-48
2022/02/01 00:35:02;;;;;;;13.57;3.10;;;;;;;2.25;79.84;101084.97;5003397;28;20138;-47
2022/02/01 00:37:30;;;;;;;12.48;4.10;;;;;;;2.27;79.30;101088.22;5004780;28;20037;-47
2022/02/01 00:39:58;;;;;;;13.05;4.50;;;;;;;2.31;79.18;101084.22;5002796;28;20316;-47
2022/02/01 00:42:23;;;;;;;13.48;3.20;;;;;;;2.34;79.06;101086.50;5003696;28;20528;-47
2022/02/01 00:44:49;;;;;;;12.80;2.78;;;;;;;2.39;78.79;101084.13;5003927;28;20044;-47
2022/02/01 00:47:15;;;;;;;11.45;4.22;;;;;;;2.41;78.44;101088.22;5003509;28;20049;-47
2022/02/01 00:49:42;;;;;;;10.40;2.83;;;;;;;2.41;78.54;101098.78;5004186;28;20045;-47
2022/02/01 00:52:08;;;;;;;11.57;3.25;;;;;;;2.41;78.38;101108.56;5003899;28;20030;-47
2022/02/01 00:54:33;;;;;;;11.60;4.05;;;;;;;2.42;78.39;101113.66;5003775;28;20021;-47
2022/02/01 00:56:59;;;;;;;17.23;4.38;;;;;;;2.39;79.02;101119.31;5014572;28;20038;-47
2022/02/01 00:59:25;;;;;;;17.00;3.50;;;;;;;2.38;78.50;101114.22;5003835;28;20103;-47
2022/02/01 01:01:57;;;;;;;11.57;4.05;;;;;;;2.30;78.55;101125.69;5003869;28;20483;-46
2022/02/01 01:04:23;;;;;;;15.18;4.00;;;;;;;2.26;79.16;101128.91;4999748;28;20026;-47
2022/02/01 01:06:48;;;;;;;13.55;3.00;;;;;;;2.22;79.25;101125.00;5005333;28;20593;-47
2022/02/01 01:09:14;;;;;;;17.73;3.90;;;;;;;2.16;79.51;101131.03;5017746;28;20468;-48
2022/02/01 01:11:40;;;;;;;15.15;3.72;;;;;;;2.11;79.70;101129.72;4998338;28;20022;-46
2022/02/01 01:43:50;;;;;;;14.60;3.67;;;;;;;2.17;80.33;101095.66;5003164;28;20049;-48
2022/02/01 01:54:12;;;;;;;9.70;3.80;;;;;;;2.20;80.75;101095.28;5006821;28;20119;-47
2022/02/01 01:56:38;;;;;;;12.63;3.00;;;;;;;2.21;80.98;101086.34;5008271;28;20478;-47
2022/02/01 01:59:06;;;;;;;11.80;3.80;;;;;;;2.22;80.67;101077.41;5006646;28;20231;-47
2022/02/01 02:15:49;;;;;;;10.70;3.50;;;;;;;2.20;81.01;101084.72;5007194;28;20430;-47
2022/02/01 02:18:19;;;;;;;21.35;4.45;;;;;;;2.22;80.82;101077.41;5007301;28;20022;-47
2022/02/01 02:20:48;;;;;;;10.85;3.10;;;;;;;2.21;81.21;101076.59;5019244;28;20072;-47
2022/02/01 02:23:13;;;;;;;12.77;3.17;;;;;;;2.26;80.63;101078.66;5006735;28;20495;-49
2022/02/01 02:25:40;;;;;;;13.30;3.00;;;;;;;2.27;80.90;101077.66;5008166;28;20045;-47
2022/02/01 02:28:07;;;;;;;12.10;3.00;;;;;;;2.28;80.93;101074.00;5005464;28;20159;-47
2022/02/01 02:30:33;;;;;;;12.70;3.67;;;;;;;2.30;81.08;101064.06;5004831;28;20487;-47
2022/02/01 02:33:08;;;;;;;13.82;4.00;;;;;;;2.31;80.75;101057.78;5007071;28;20045;-47
2022/02/01 02:35:38;;;;;;;12.63;3.22;;;;;;;2.33;81.14;101064.50;5003672;28;20030;-47
2022/02/01 02:38:10;;;;;;;15.70;5.03;;;;;;;2.34;81.19;101076.75;5005268;28;20038;-47
2022/02/01 02:46:01;;;;;;;21.73;4.75;;;;;;;2.31;82.02;101068.34;5005828;28;20044;-47
2022/02/01 02:48:26;;;;;;;8.65;3.45;;;;;;;2.33;81.64;101063.69;5007504;28;20030;-47
2022/02/01 02:50:52;;;;;;;11.98;3.67;;;;;;;2.32;81.87;101064.69;5005969;28;20436;-49
2022/02/01 02:53:17;;;;;;;8.88;2.75;;;;;;;2.33;81.95;101063.69;5007241;28;20018;-48
2022/02/01 02:55:43;;;;;;;10.55;3.00;;;;;;;2.34;81.65;101062.72;5007633;28;20555;-49
2022/02/01 02:58:08;;;;;;;12.02;3.22;;;;;;;2.34;81.54;101052.94;5006161;28;20068;-48
2022/02/01 03:00:34;;;;;;;16.48;3.22;;;;;;;2.37;81.48;101059.69;5005793;28;20052;-48
2022/02/01 03:03:01;;;;;;;15.30;3.38;;;;;;;2.37;81.65;101059.69;5008679;28;20155;-49
2022/02/01 03:05:27;;;;;;;8.68;2.95;;;;;;;2.33;81.90;101055.75;5006936;28;20291;-48
2022/02/01 03:07:52;;;;;;;10.00;2.88;;;;;;;2.37;81.76;101060.50;5006581;28;20080;-47
2022/02/01 03:10:18;;;;;;;12.77;3.22;;;;;;;2.38;81.86;101058.69;5005329;28;20093;-47
2022/02/01 03:15:51;;;;;;;8.40;3.03;;;;;;;2.35;81.94;101051.94;4983391;28;20049;-47
2022/02/01 03:21:00;;;;;;;15.98;4.45;;;;;;;2.39;81.66;101053.19;5004680;28;20040;-50
2022/02/01 03:23:26;;;;;;;10.35;3.92;;;;;;;2.40;81.70;101044.25;5005864;28;20033;-48
2022/02/01 03:25:51;;;;;;;11.15;2.83;;;;;;;2.40;81.81;101051.38;5004000;28;20026;-49
2022/02/01 03:28:17;;;;;;;15.35;4.15;;;;;;;2.42;81.80;101058.13;5004008;28;20029;-48
2022/02/01 03:30:42;;;;;;;11.25;3.33;;;;;;;2.42;81.76;101054.66;5005774;28;20220;-47
2022/02/01 03:33:08;;;;;;;11.85;3.60;;;;;;;2.43;81.69;101054.47;5005556;28;20037;-47
2022/02/01 03:35:33;;;;;;;16.98;3.92;;;;;;;2.44;81.73;101057.91;5006594;28;20025;-47
2022/02/01 03:38:01;;;;;;;17.92;4.20;;;;;;;2.43;81.90;101065.03;5002358;28;20044;-48
2022/02/01 03:40:26;;;;;;;18.92;4.57;;;;;;;2.42;81.95;101055.47;5004961;28;20029;-47
2022/02/01 03:42:52;;;;;;;19.60;5.20;;;;;;;2.43;81.85;101048.34;5004093;28;20394;-49
2022/02/01 03:45:17;;;;;;;17.27;4.40;;;;;;;2.44;82.11;101055.28;5005594;28;20030;-47
2022/02/01 03:47:43;;;;;;;17.10;4.57;;;;;;;2.46;81.91;101053.25;5004965;28;20502;-47
2022/02/01 03:50:09;;;;;;;22.25;6.13;;;;;;;2.48;81.94;101061.00;5005105;28;20052;-49
2022/02/01 03:52:35;;;;;;;19.58;4.70;;;;;;;2.48;81.91;101063.66;5003711;28;20024;-47
2022/02/01 03:55:01;;;;;;;15.85;4.68;;;;;;;2.46;82.04;101053.25;5004998;28;20118;-50
2022/02/01 03:57:26;;;;;;;14.50;3.72;;;;;;;2.45;82.22;101053.44;5006839;28;20109;-45
2022/02/01 03:59:52;;;;;;;14.80;4.57;;;;;;;2.46;81.99;101044.50;5005280;28;20494;-47
2022/02/01 04:02:17;;;;;;;12.48;4.05;;;;;;;2.46;82.17;101042.69;5005477;28;20018;-45
2022/02/01 04:04:45;;;;;;;18.88;5.40;;;;;;;2.48;82.14;101042.50;5005432;28;20018;-46
2022/02/01 04:07:11;;;;;;;19.35;4.40;;;;;;;2.52;81.79;101022.63;5004377;28;20025;-45
2022/02/01 04:09:36;;;;;;;17.33;4.40;;;;;;;2.55;81.63;101025.69;5004524;28;20549;-44
2022/02/01 04:12:05;;;;;;;12.90;4.22;;;;;;;2.55;81.94;101012.47;5005374;28;20040;-46
2022/02/01 04:14:33;;;;;;;11.30;4.07;;;;;;;2.54;81.90;101007.38;5006465;28;20026;-46
2022/02/01 04:17:01;;;;;;;14.57;5.07;;;;;;;2.55;81.90;100999.25;5016411;28;20553;-45
2022/02/01 04:19:28;;;;;;;19.27;4.88;;;;;;;2.54;81.73;100988.88;5005544;28;20018;-45
2022/02/01 04:22:00;;;;;;;17.98;5.22;;;;;;;2.53;81.74;100988.03;5003914;28;20248;-45
2022/02/01 04:24:27;;;;;;;14.15;4.80;;;;;;;2.51;81.72;100976.81;5005257;28;20032;-44
2022/02/01 04:26:53;;;;;;;14.60;4.43;;;;;;;2.48;81.93;100977.19;5003763;28;20111;-46
2022/02/01 04:29:18;;;;;;;19.02;4.55;;;;;;;2.48;81.78;100966.63;5004634;28;20476;-46
2022/02/01 04:31:44;;;;;;;16.67;5.10;;;;;;;2.52;81.83;100980.31;5004422;28;20110;-45
2022/02/01 04:34:09;;;;;;;25.15;5.72;;;;;;;2.50;81.97;100977.81;5005008;28;20044;-45
2022/02/01 04:36:35;;;;;;;12.73;4.07;;;;;;;2.53;81.47;100981.94;5004587;28;20022;-47
2022/02/01 04:39:01;;;;;;;11.68;4.22;;;;;;;2.54;81.41;100984.38;5003306;28;20506;-46
2022/02/01 04:41:28;;;;;;;15.50;4.85;;;;;;;2.52;81.78;100978.47;5004946;28;20025;-45
2022/02/01 04:43:54;;;;;;;10.57;4.53;;;;;;;2.53;81.62;100981.94;5004111;28;20459;-45
2022/02/01 04:46:21;;;;;;;13.02;4.43;;;;;;;2.55;81.48;100993.97;5004547;28;20025;-46
2022/02/01 04:48:47;;;;;;;21.80;6.13;;;;;;;2.54;81.48;100981.75;5004256;28;20038;-45
2022/02/01 04:51:17;;;;;;;16.83;5.47;;;;;;;2.54;81.37;100984.38;5004660;28;20034;-45
2022/02/01 04:53:44;;;;;;;14.05;4.13;;;;;;;2.53;81.56;100982.75;5005539;28;20029;-45
2022/02/01 04:56:10;;;;;;;13.32;4.68;;;;;;;2.56;81.11;100992.13;5003364;28;20037;-46
2022/02/01 04:58:35;;;;;;;20.65;4.93;;;;;;;2.53;81.37;100990.69;5005233;28;20021;-45
2022/02/01 05:01:01;;;;;;;12.73;4.10;;;;;;;2.55;81.34;100995.78;5004289;28;20056;-47
2022/02/01 05:03:26;;;;;;;16.10;4.85;;;;;;;2.55;80.99;100988.66;5004836;28;20271;-45
2022/02/01 05:05:52;;;;;;;19.67;5.00;;;;;;;2.57;81.37;100991.94;4997360;28;20037;-46
2022/02/01 05:08:18;;;;;;;13.10;5.10;;;;;;;2.57;81.34;100986.66;5003915;28;20033;-46
2022/02/01 05:10:44;;;;;;;30.98;8.98;;;;;;;2.58;81.26;101004.16;5000038;28;20026;-47
2022/02/01 05:15:39;;;;;;;19.17;5.53;;;;;;;2.56;80.87;101000.88;5004272;28;20095;-45
2022/02/01 05:18:05;;;;;;;21.92;6.13;;;;;;;2.54;80.83;101007.38;5002603;28;20121;-45
2022/02/01 05:20:57;;;;;;;21.17;5.72;;;;;;;2.53;81.34;101003.91;5004316;28;20554;-45
2022/02/01 05:23:18;;;;;;;20.48;5.30;;;;;;;2.56;81.24;100985.00;5001124;28;20052;-45
2022/02/01 05:25:44;;;;;;;18.17;5.57;;;;;;;2.54;81.18;100980.94;5012231;28;20787;-45
2022/02/01 05:28:10;;;;;;;18.02;5.07;;;;;;;2.55;80.92;100985.22;5003380;28;20061;-46
2022/02/01 05:30:35;;;;;;;12.52;5.38;;;;;;;2.56;80.90;100984.19;5004418;28;20431;-46
2022/02/01 05:33:01;;;;;;;18.67;5.88;;;;;;;2.57;80.84;100989.28;5002338;28;20029;-47
2022/02/01 05:35:27;;;;;;;17.75;5.25;;;;;;;2.59;80.52;100989.91;5003533;28;20121;-45
2022/02/01 05:37:52;;;;;;;23.65;7.13;;;;;;;2.60;80.48;100990.75;4998305;28;20036;-45
2022/02/01 05:40:19;;;;;;;11.15;4.72;;;;;;;2.62;80.35;100986.88;5000237;28;20029;-45
2022/02/01 05:43:04;;;;;;;20.13;5.47;;;;;;;2.63;80.39;100985.06;5001371;28;20032;-45
2022/02/01 05:45:33;;;;;;;16.02;5.35;;;;;;;2.62;80.51;100980.78;5003228;28;20578;-45
2022/02/01 05:48:01;;;;;;;17.23;6.00;;;;;;;2.63;80.65;100970.00;5003896;28;20073;-47
2022/02/01 05:50:26;;;;;;;19.13;6.72;;;;;;;2.63;80.52;100961.25;5002684;28;20030;-45
2022/02/01 05:52:52;;;;;;;16.80;5.13;;;;;;;2.63;80.52;100969.19;5002615;28;20032;-46
2022/02/01 05:55:18;;;;;;;21.73;5.75;;;;;;;2.60;80.61;100978.34;5004189;28;20512;-44
2022/02/01 05:57:46;;;;;;;18.92;6.03;;;;;;;2.54;80.71;100971.16;5003406;28;20026;-45
2022/02/01 06:00:12;;;;;;;18.00;6.10;;;;;;;2.50;80.87;100969.88;5003342;28;20026;-48
2022/02/01 06:02:38;;;;;;;15.57;6.82;;;;;;;2.53;80.95;100971.34;5004899;28;20026;-46
2022/02/01 06:05:03;;;;;;;16.35;5.85;;;;;;;2.48;81.39;100966.63;5002244;28;20037;-45
2022/02/01 06:07:29;;;;;;;18.40;6.93;;;;;;;2.50;81.27;100974.34;5003937;28;20708;-45
2022/02/01 06:09:54;;;;;;;23.10;7.32;;;;;;;2.48;81.31;100966.63;5004608;28;20387;-46
2022/02/01 06:12:20;;;;;;;18.20;6.93;;;;;;;2.52;81.40;100967.06;5004478;28;20436;-45
2022/02/01 06:14:45;;;;;;;22.90;7.28;;;;;;;2.53;81.27;100974.00;5004279;28;20463;-46
2022/02/01 06:17:11;;;;;;;21.52;7.95;;;;;;;2.51;81.74;100987.38;5002779;28;20022;-45
2022/02/01 06:19:36;;;;;;;20.35;7.45;;;;;;;2.50;81.52;100996.34;5004990;28;20396;-45
2022/02/01 06:22:03;;;;;;;30.35;8.55;;;;;;;2.48;81.81;100982.47;5003693;28;20264;-45
2022/02/01 06:24:30;;;;;;;19.58;7.88;;;;;;;2.52;81.42;100980.31;5004026;28;20667;-46
2022/02/01 06:26:55;;;;;;;17.98;7.93;;;;;;;2.52;81.79;100989.06;5018328;28;20536;-44
2022/02/01 06:29:21;;;;;;;19.02;7.63;;;;;;;2.47;82.17;100990.59;5003644;28;20040;-45
2022/02/01 06:31:46;;;;;;;15.45;7.57;;;;;;;2.48;82.26;100998.34;5001016;28;20029;-46
2022/02/01 06:34:11;;;;;;;19.38;6.95;;;;;;;2.48;82.12;100994.88;5006489;28;20092;-45
2022/02/01 06:36:37;;;;;;;19.42;7.05;;;;;;;2.43;82.40;100985.69;5008504;28;20032;-46
2022/02/01 06:39:07;;;;;;;18.05;7.10;;;;;;;2.43;82.55;100985.69;5007790;28;20030;-45
2022/02/01 06:41:33;;;;;;;17.45;7.93;;;;;;;2.44;82.53;100978.59;5008768;28;20468;-45
2022/02/01 06:44:01;;;;;;;17.50;7.20;;;;;;;2.47;82.49;100972.91;5006419;28;20116;-45
2022/02/01 06:46:26;;;;;;;23.98;9.43;;;;;;;2.45;82.25;100974.13;5007531;28;20037;-45
2022/02/01 06:48:52;;;;;;;18.92;8.30;;;;;;;2.43;82.30;100977.78;5007807;28;20026;-45
2022/02/01 06:51:19;;;;;;;19.40;8.93;;;;;;;2.43;82.46;100967.19;5005270;28;20034;-46
2022/02/01 06:53:45;;;;;;;20.02;8.57;;;;;;;2.42;82.69;100959.44;5006731;28;20025;-47
2022/02/01 06:56:28;;;;;;;19.30;7.57;;;;;;;2.41;82.71;100963.09;5005355;28;20156;-46
2022/02/01 06:58:57;;;;;;;24.27;8.38;;;;;;;2.37;82.86;100943.34;5004190;28;20164;-45
2022/02/01 07:01:23;;;;;;;19.92;7.57;;;;;;;2.36;82.78;100945.16;5006032;28;20036;-45
2022/02/01 07:03:49;;;;;;;16.90;8.15;;;;;;;2.37;82.87;100946.81;5020804;28;20388;-45
2022/02/01 07:06:14;;;;;;;22.38;8.48;;;;;;;2.37;83.10;100941.50;5004161;28;20026;-45
2022/02/01 07:08:43;;;;;;;19.67;8.52;;;;;;;2.41;83.05;100941.94;5006250;28;20104;-47
2022/02/01 07:11:10;;;;;;;16.98;7.88;;;;;;;2.39;82.97;100936.03;5005363;28;20037;-45
2022/02/01 07:13:36;;;;;;;19.88;7.82;;;;;;;2.41;83.03;100944.59;4998001;28;20437;-45
2022/02/01 07:16:02;;;;;;;21.90;8.00;;;;;;;2.40;83.21;100942.97;5006588;28;20451;-45
2022/02/01 07:18:28;;;;;;;17.75;7.43;;;;;;;2.43;82.80;100927.53;5007199;28;20400;-45
2022/02/01 07:20:53;;;;;;;17.90;8.73;;;;;;;2.43;82.79;100929.34;5006497;28;20037;-45
2022/02/01 07:23:23;;;;;;;20.90;7.50;;;;;;;2.45;82.73;100937.91;5005939;28;20125;-45
2022/02/01 07:25:50;;;;;;;20.10;8.35;;;;;;;2.43;82.86;100938.09;5006189;28;20030;-44
2022/02/01 07:28:17;;;;;;;20.52;8.30;;;;;;;2.46;82.91;100931.59;5004480;28;20234;-44
2022/02/01 07:30:44;;;;;;;16.80;7.97;;;;;;;2.46;82.74;100934.25;5005827;28;20113;-44
2022/02/01 07:33:09;;;;;;;16.13;7.00;;;;;;;2.48;82.30;100932.22;5005198;28;20052;-45
2022/02/01 07:35:37;;;;;;;15.13;7.10;;;;;;;2.52;82.45;100937.97;5006149;28;20048;-44
2022/02/01 07:38:03;;;;;;;14.45;5.90;;;;;;;2.55;82.25;100932.31;5004794;28;20026;-45
2022/02/01 07:40:29;;;;;;;16.10;6.43;;;;;;;2.54;82.22;100935.97;5006090;28;20042;-45
2022/02/01 07:42:56;;;;;;;23.75;7.88;;;;;;;2.54;82.24;100939.44;5004992;28;20260;-44
2022/02/01 07:45:26;;;;;;;15.38;6.93;;;;;;;2.56;82.27;100941.88;5004330;28;20034;-45
2022/02/01 07:47:52;;;;;;;15.05;6.60;;;;;;;2.58;82.03;100948.59;5005852;28;20030;-45
2022/02/01 07:50:18;;;;;;;22.95;8.13;;;;;;;2.58;82.03;100948.59;5019652;28;20260;-45
2022/02/01 07:52:43;;;;;;;14.65;6.50;;;;;;;2.61;81.93;100950.06;5005579;28;20563;-45
2022/02/01 07:55:09;;;;;;;17.00;6.07;;;;;;;2.56;81.78;100945.34;5003772;28;20029;-45
2022/02/01 07:57:34;;;;;;;19.65;6.13;;;;;;;2.55;82.22;100946.34;5003942;28;20056;-45
2022/02/01 08:00:00;;;;;;;16.42;5.43;;;;;;;2.51;82.25;100947.72;5005689;28;21474;-45
2022/02/01 08:02:26;;;;;;;13.18;4.95;;;;;;;2.54;82.12;100934.13;5004694;28;20033;-44
2022/02/01 08:04:57;;;;;;;12.15;5.22;;;;;;;2.51;82.29;100931.84;5004280;28;20124;-45
2022/02/01 08:07:24;;;;;;;13.27;5.57;;;;;;;2.51;82.13;100929.19;5005244;28;20395;-45
2022/02/01 08:09:55;;;;;;;13.70;5.03;;;;;;;2.48;82.47;100921.66;5005396;28;20518;-45
2022/02/01 08:17:45;;;;;;;15.13;5.75;;;;;;;2.53;81.89;100940.44;5004356;28;20474;-45
2022/02/01 08:20:09;;;;;;;12.48;4.57;;;;;;;2.56;81.96;100944.53;5003627;28;20088;-44
2022/02/01 08:25:05;;;;;;;13.20;3.75;;;;;;;2.70;82.13;100940.97;5004573;28;20099;-45
2022/02/01 08:27:31;;;;;;;19.00;4.68;;;;;;;2.76;81.83;100936.75;5004204;28;20109;-45
2022/02/01 08:29:58;;;;;;;17.92;4.75;;;;;;;2.86;81.77;100929.28;5004133;28;20034;-45
2022/02/01 08:32:23;;;;;;;10.77;4.10;;;;;;;2.98;81.37;100938.31;5004405;28;20032;-44
2022/02/01 08:34:49;;;;;;;16.00;4.15;;;;;;;3.06;80.96;100927.59;5003803;28;20121;-45
2022/02/01 08:37:15;;;;;;;15.02;4.20;;;;;;;3.17;80.71;100921.75;5004847;28;20030;-45
2022/02/01 08:39:40;;;;;;;8.60;4.07;;;;;;;3.23;80.72;100928.91;5004782;28;20022;-45
2022/02/01 08:42:06;;;;;;;11.55;4.15;;;;;;;3.27;80.46;100924.88;5003713;28;20065;-44
2022/02/01 08:44:32;;;;;;;12.38;3.83;;;;;;;3.32;80.52;100924.28;5004845;28;20036;-44
2022/02/01 08:46:58;;;;;;;9.98;3.50;;;;;;;3.37;80.24;100918.38;5005007;28;20030;-45
2022/02/01 08:49:24;;;;;;;8.63;3.60;;;;;;;3.38;79.82;100917.34;5005148;28;20044;-45
2022/02/01 08:52:03;;;;;;;10.15;3.22;;;;;;;3.37;79.53;100923.66;5004105;28;20034;-45
2022/02/01 08:54:31;;;;;;;15.50;3.78;;;;;;;3.34;79.62;100912.47;5004840;28;20037;-45
2022/02/01 08:59:42;;;;;;;11.25;2.92;;;;;;;3.33;79.73;100913.47;5004705;28;20028;-44
2022/02/01 09:02:08;;;;;;;12.00;3.47;;;;;;;3.40;79.42;100912.69;5002913;28;20037;-44
2022/02/01 09:04:34;;;;;;;11.68;3.80;;;;;;;3.42;79.55;100902.72;5002424;28;20033;-45
2022/02/01 09:07:01;;;;;;;12.43;3.83;;;;;;;3.45;79.38;100904.97;5003626;28;20044;-45
2022/02/01 09:09:28;;;;;;;10.98;3.08;;;;;;;3.45;79.16;100897.03;5002883;28;21482;-45
2022/02/01 09:11:54;;;;;;;13.20;3.20;;;;;;;3.44;79.12;100898.06;4998353;28;20017;-45
2022/02/01 09:14:20;;;;;;;13.93;4.22;;;;;;;3.50;79.33;100886.66;5003897;28;20361;-45
2022/02/01 09:16:47;;;;;;;10.90;3.20;;;;;;;3.53;78.90;100888.91;5003342;28;20021;-45
2022/02/01 09:19:13;;;;;;;13.02;3.05;;;;;;;3.55;78.68;100884.22;5003202;28;20045;-45
2022/02/01 09:21:39;;;;;;;10.02;2.88;;;;;;;3.56;78.84;100876.06;5005398;28;20087;-45
2022/02/01 09:24:05;;;;;;;9.95;3.08;;;;;;;3.59;78.42;100880.16;5003360;28;20033;-45
2022/02/01 09:26:31;;;;;;;14.00;3.72;;;;;;;3.58;78.41;100873.22;5002597;28;20037;-45
2022/02/01 09:28:56;;;;;;;9.00;3.25;;;;;;;3.57;78.39;100868.94;4999844;28;20104;-45
2022/02/01 09:31:22;;;;;;;12.32;3.72;;;;;;;3.57;78.25;100872.41;5004320;28;20838;-45
2022/02/01 09:33:47;;;;;;;13.10;3.55;;;;;;;3.60;78.45;100872.03;5000052;28;20029;-44
2022/02/01 09:36:13;;;;;;;20.08;3.75;;;;;;;3.61;78.28;100855.13;5000464;28;20033;-45
2022/02/01 09:38:38;;;;;;;9.75;3.33;;;;;;;3.63;78.03;100849.63;5005703;28;20480;-45
2022/02/01 09:41:04;;;;;;;12.50;2.78;;;;;;;3.64;77.96;100840.66;5001873;28;20363;-46
2022/02/01 09:43:30;;;;;;;14.65;3.45;;;;;;;3.66;78.17;100838.63;5003525;28;20088;-45
2022/02/01 09:45:57;;;;;;;10.55;2.78;;;;;;;3.71;78.11;100819.44;5003596;28;20036;-45
2022/02/01 09:48:23;;;;;;;10.80;2.78;;;;;;;3.72;77.95;100827.19;5003935;28;20034;-45
2022/02/01 09:50:52;;;;;;;11.88;3.00;;;;;;;3.76;77.45;100817.81;5003682;28;20084;-48
2022/02/01 09:53:19;;;;;;;13.48;2.88;;;;;;;3.75;77.48;100812.72;5003970;28;20029;-48
2022/02/01 09:55:45;;;;;;;7.78;2.55;;;;;;;3.79;77.59;100812.16;5003408;28;20033;-48
2022/02/01 09:58:12;;;;;;;13.13;2.55;;;;;;;3.82;77.13;100825.00;5004148;28;20040;-48
2022/02/01 10:00:46;;;;;;;13.60;2.90;;;;;;;3.84;77.29;100825.59;5004223;28;20430;-47
2022/02/01 10:03:20;;;;;;;11.50;2.67;;;;;;;3.87;77.51;100819.06;5004102;28;20060;-48
2022/02/01 10:06:10;;;;;;;11.18;3.85;;;;;;;3.88;76.93;100821.53;5003442;28;20029;-49
2022/02/01 10:08:36;;;;;;;10.63;3.45;;;;;;;3.97;76.79;100813.38;5003642;28;20429;-47
2022/02/01 10:11:04;;;;;;;9.60;2.63;;;;;;;3.94;76.74;100814.59;5005685;28;20061;-47
2022/02/01 10:13:34;;;;;;;19.73;2.85;;;;;;;3.94;76.56;100801.34;5008213;28;20085;-47
2022/02/01 10:16:07;;;;;;;11.25;3.28;;;;;;;3.94;76.52;100794.19;5006732;28;20138;-47
2022/02/01 10:18:35;;;;;;;11.98;2.47;;;;;;;3.95;76.41;100795.03;5007580;28;20026;-47
2022/02/01 10:21:10;;;;;;;10.43;2.75;;;;;;;3.92;76.34;100796.25;5007721;28;20151;-48
2022/02/01 10:23:38;;;;;;;9.73;2.90;;;;;;;3.96;76.54;100796.66;5006061;28;20116;-48
2022/02/01 10:26:20;;;;;;;12.23;2.55;;;;;;;3.96;76.02;100793.19;5006846;28;20029;-48
2022/02/01 10:31:17;;;;;;;10.77;2.58;;;;;;;4.04;76.08;100785.03;5007501;28;20030;-47
2022/02/01 10:36:18;;;;;;;17.77;3.60;;;;;;;4.05;76.11;100776.06;5007817;28;20526;-47
2022/02/01 10:38:44;;;;;;;12.18;2.67;;;;;;;4.10;75.90;100770.94;5006172;28;20048;-48
2022/02/01 10:41:15;;;;;;;17.02;3.33;;;;;;;4.09;76.06;100759.53;5006878;28;20037;-47
2022/02/01 10:43:41;;;;;;;17.48;2.65;;;;;;;4.13;76.14;100754.63;5007378;28;20037;-47
2022/02/01 10:46:15;;;;;;;6.38;3.85;;;;;;;4.15;76.14;100758.72;5006283;28;20319;-48
2022/02/01 10:48:54;;;;;;;10.05;2.33;;;;;;;4.15;75.99;100742.81;5007161;28;20037;-48
2022/02/01 10:51:21;;;;;;;10.48;2.42;;;;;;;4.15;75.85;100742.00;5006154;28;20234;-47
2022/02/01 10:53:48;;;;;;;9.63;2.70;;;;;;;4.13;75.75;100744.03;5006095;28;20025;-48
2022/02/01 10:56:19;;;;;;;10.38;3.13;;;;;;;4.10;75.93;100729.34;5006613;28;20037;-48
2022/02/01 10:58:46;;;;;;;14.40;2.90;;;;;;;4.12;75.62;100732.59;5007265;28;20057;-48
2022/02/01 11:01:13;;;;;;;7.55;2.50;;;;;;;4.12;75.64;100721.19;5007226;28;20361;-47
2022/02/01 11:03:44;;;;;;;8.75;2.00;;;;;;;4.10;75.58;100729.34;5007504;28;20030;-47
2022/02/01 11:06:10;;;;;;;8.88;2.30;;;;;;;4.12;75.72;100722.00;5006529;28;20032;-48
2022/02/01 11:08:39;;;;;;;11.40;2.53;;;;;;;4.15;75.94;100704.88;5005207;28;20022;-48
2022/02/01 11:11:06;;;;;;;10.75;2.35;;;;;;;4.18;75.58;100699.16;5006046;28;20044;-47
2022/02/01 11:13:43;;;;;;;9.18;2.30;;;;;;;4.16;75.38;100699.38;5009961;28;20320;-48
2022/02/01 11:16:20;;;;;;;10.63;2.60;;;;;;;4.17;75.54;100692.22;5005740;28;20030;-47
2022/02/01 11:18:54;;;;;;;10.75;2.25;;;;;;;4.13;75.66;100680.38;5005577;28;20030;-47
2022/02/01 11:21:20;;;;;;;10.38;2.42;;;;;;;4.15;75.60;100671.22;5003721;28;20170;-48
2022/02/01 11:23:53;;;;;;;8.50;2.08;;;;;;;4.18;75.78;100667.34;5018310;28;20112;-48
2022/02/01 11:26:50;;;;;;;14.95;3.25;;;;;;;4.22;75.71;100656.09;5004051;28;20426;-47
2022/02/01 11:29:50;;;;;;;9.82;2.50;;;;;;;4.22;75.86;100642.84;5004688;28;20392;-48
2022/02/01 11:32:19;;;;;;;11.10;2.80;;;;;;;4.29;75.61;100637.50;5002786;28;20033;-48
2022/02/01 11:34:45;;;;;;;11.45;2.42;;;;;;;4.34;75.67;100623.63;4999332;28;20476;-47
2022/02/01 11:37:15;;;;;;;8.70;1.92;;;;;;;4.36;75.49;100633.00;5006249;28;20030;-48
2022/02/01 11:39:48;;;;;;;7.93;1.88;;;;;;;4.34;75.84;100620.97;5004616;28;20426;-48
2022/02/01 11:42:15;;;;;;;10.13;1.88;;;;;;;4.38;75.75;100611.56;5006269;28;20667;-48
2022/02/01 11:44:40;;;;;;;12.88;2.00;;;;;;;4.38;75.83;100608.91;5004991;28;20034;-48
2022/02/01 11:47:12;;;;;;;13.50;2.17;;;;;;;4.37;75.86;100597.50;5004228;28;20026;-48
2022/02/01 11:49:55;;;;;;;13.90;2.60;;;;;;;4.38;75.94;100588.50;5002519;28;20022;-48
2022/02/01 11:52:21;;;;;;;10.10;1.80;;;;;;;4.40;76.03;100583.00;5003239;28;20025;-48
2022/02/01 11:54:58;;;;;;;8.98;1.75;;;;;;;4.38;76.26;100582.38;5002171;28;20045;-48
2022/02/01 11:57:29;;;;;;;7.20;2.55;;;;;;;4.35;75.98;100567.72;5003458;28;20032;-48
2022/02/01 12:00:07;;;;;;;9.90;2.70;;;;;;;4.35;75.86;100556.28;5002801;28;20357;-48
2022/02/01 12:02:39;;;;;;;8.43;2.47;;;;;;;4.35;76.18;100543.84;5001739;28;20380;-48
2022/02/01 12:05:16;;;;;;;16.65;2.88;;;;;;;4.33;76.12;100548.56;5003145;28;20033;-47
2022/02/01 12:07:53;;;;;;;12.30;2.30;;;;;;;4.30;76.47;100527.72;5002748;28;20032;-47
2022/02/01 12:10:20;;;;;;;13.07;2.33;;;;;;;4.31;76.50;100524.09;5002576;28;20095;-47
2022/02/01 12:12:46;;;;;;;12.25;2.03;;;;;;;4.32;76.63;100504.50;5002707;28;20025;-48
2022/02/01 12:15:11;;;;;;;10.35;2.13;;;;;;;4.33;76.49;100495.50;5001305;28;20029;-48
2022/02/01 12:17:43;;;;;;;10.35;2.83;;;;;;;4.32;76.33;100491.22;5002856;28;20088;-48
2022/02/01 12:20:14;;;;;;;8.75;2.17;;;;;;;4.32;76.83;100479.81;5017452;28;20319;-47
2022/02/01 12:23:09;;;;;;;12.93;2.28;;;;;;;4.27;76.94;100464.50;5003968;28;20048;-49
2022/02/01 12:25:34;;;;;;;10.20;2.40;;;;;;;4.30;76.72;100460.63;4995954;28;20113;-47
2022/02/01 12:27:59;;;;;;;9.40;2.20;;;;;;;4.25;77.09;100455.97;5002785;28;20029;-48
2022/02/01 12:30:25;;;;;;;9.73;2.53;;;;;;;4.27;77.07;100443.28;5000699;28;20033;-47
2022/02/01 12:32:53;;;;;;;8.68;2.42;;;;;;;4.27;77.28;100438.00;5002938;28;20034;-48
2022/02/01 12:35:36;;;;;;;11.38;2.00;;;;;;;4.28;77.08;100417.59;5001225;28;20033;-47
2022/02/01 12:38:03;;;;;;;8.43;1.85;;;;;;;4.26;77.50;100399.25;5002606;28;20035;-48
2022/02/01 12:40:33;;;;;;;13.27;2.10;;;;;;;4.20;77.53;100402.75;5003764;28;20076;-47
2022/02/01 12:43:07;;;;;;;14.27;2.63;;;;;;;4.20;77.83;100385.00;5001360;28;20350;-48
2022/02/01 12:45:50;;;;;;;6.00;2.30;;;;;;;4.18;77.59;100370.34;5002656;28;20366;-47
2022/02/01 12:48:17;;;;;;;10.75;2.00;;;;;;;4.16;77.71;100367.09;5003230;28;20037;-47
2022/02/01 12:51:02;;;;;;;8.43;2.08;;;;;;;4.14;78.05;100356.72;5001834;28;20069;-48
2022/02/01 12:53:39;;;;;;;8.65;1.83;;;;;;;4.10;77.98;100354.69;5003182;28;20112;-48
2022/02/01 12:56:22;;;;;;;5.03;1.50;;;;;;;4.12;78.14;100334.88;5002950;28;20032;-47
2022/02/01 12:58:56;;;;;;;9.18;1.77;;;;;;;4.10;78.17;100321.03;5002473;28;20033;-47
2022/02/01 13:01:48;;;;;;;7.35;1.80;;;;;;;4.05;78.21;100309.47;5002531;28;20782;-47
2022/02/01 13:04:22;;;;;;;8.75;1.95;;;;;;;4.04;78.49;100300.69;4999183;28;20091;-48
2022/02/01 13:06:49;;;;;;;10.77;1.88;;;;;;;4.03;78.62;100292.97;4999723;28;20038;-47
2022/02/01 13:14:48;;;;;;;9.07;2.00;;;;;;;4.05;78.77;100264.38;4998168;28;20180;-47
2022/02/01 13:20:18;;;;;;;9.60;1.73;;;;;;;4.00;79.12;100237.72;4979217;28;20100;-47
2022/02/01 13:22:56;;;;;;;6.63;1.75;;;;;;;3.98;79.19;100232.66;5002150;28;20731;-48
2022/02/01 13:25:36;;;;;;;7.70;2.88;;;;;;;3.89;79.90;100218.03;4998865;28;20029;-47
2022/02/01 13:28:08;;;;;;;10.00;1.92;;;;;;;3.92;79.40;100214.94;5002560;28;20056;-47
2022/02/01 13:30:35;;;;;;;5.88;2.05;;;;;;;3.92;79.66;100196.38;4999846;28;20034;-48